sensor_id;sensor_type;location;lat;lon;timestamp;P1;durP1;ratioP1;P2;durP2;ratioP2
20511;SDS011;10414;52.074;5.126;2022-09-09T00:01:40;3.15;;;1.13;;
20511;SDS011;10414;52.074;5.126;2022-09-09T00:04:18;4.97;;;1.30;;
20511;SDS011;10414;52.074;5.126;2022-09-09T00:06:55;3.25;;;1.20;;
20511;SDS011;10414;52.074;5.126;2022-09-09T00:09:29;4.57;;;1.80;;
20511;SDS011;10414;52.074;5.126;2022-09-09T00:12:04;5.28;;;1.40;;
20511;SDS011;10414;52.074;5.126;2022-09-09T00:14:39;4.25;;;1.50;;
20511;SDS011;10414;52.074;5.126;2022-09-09T00:17:14;5.40;;;1.15;;
20511;SDS011;10414;52.074;5.126;2022-09-09T00:19:52;5.47;;;1.52;;
20511;SDS011;10414;52.074;5.126;2022-09-09T00:22:25;3.78;;;1.10;;
20511;SDS011;10414;52.074;5.126;2022-09-09T00:24:57;4.22;;;1.48;;
20511;SDS011;10414;52.074;5.126;2022-09-09T00:27:36;4.90;;;1.60;;
20511;SDS011;10414;52.074;5.126;2022-09-09T00:30:15;4.88;;;1.35;;
20511;SDS011;10414;52.074;5.126;2022-09-09T00:32:45;6.22;;;1.83;;
20511;SDS011;10414;52.074;5.126;2022-09-09T00:35:14;5.63;;;1.70;;
20511;SDS011;10414;52.074;5.126;2022-09-09T00:37:44;3.95;;;1.65;;
20511;SDS011;10414;52.074;5.126;2022-09-09T00:40:17;4.82;;;1.70;;
20511;SDS011;10414;52.074;5.126;2022-09-09T00:42:52;5.22;;;1.48;;
20511;SDS011;10414;52.074;5.126;2022-09-09T00:45:38;5.37;;;1.50;;
20511;SDS011;10414;52.074;5.126;2022-09-09T00:48:28;6.35;;;1.80;;
20511;SDS011;10414;52.074;5.126;2022-09-09T00:51:02;4.43;;;1.70;;
20511;SDS011;10414;52.074;5.126;2022-09-09T00:53:51;4.87;;;1.63;;
20511;SDS011;10414;52.074;5.126;2022-09-09T00:56:40;6.03;;;1.40;;
20511;SDS011;10414;52.074;5.126;2022-09-09T00:59:16;5.50;;;1.77;;
20511;SDS011;10414;52.074;5.126;2022-09-09T01:01:52;5.78;;;1.83;;
20511;SDS011;10414;52.074;5.126;2022-09-09T01:04:21;7.55;;;1.80;;
20511;SDS011;10414;52.074;5.126;2022-09-09T01:06:55;4.20;;;1.63;;
20511;SDS011;10414;52.074;5.126;2022-09-09T01:09:29;4.82;;;1.67;;
20511;SDS011;10414;52.074;5.126;2022-09-09T01:12:07;4.07;;;1.70;;
20511;SDS011;10414;52.074;5.126;2022-09-09T01:14:41;4.70;;;2.10;;
20511;SDS011;10414;52.074;5.126;2022-09-09T01:17:14;6.55;;;1.95;;
20511;SDS011;10414;52.074;5.126;2022-09-09T01:19:49;3.70;;;1.83;;
20511;SDS011;10414;52.074;5.126;2022-09-09T01:22:29;5.43;;;1.63;;
20511;SDS011;10414;52.074;5.126;2022-09-09T01:25:18;5.57;;;2.30;;
20511;SDS011;10414;52.074;5.126;2022-09-09T01:27:52;8.48;;;2.00;;
20511;SDS011;10414;52.074;5.126;2022-09-09T01:30:21;4.43;;;2.00;;
20511;SDS011;10414;52.074;5.126;2022-09-09T01:32:50;4.63;;;2.15;;
20511;SDS011;10414;52.074;5.126;2022-09-09T01:35:21;6.88;;;2.15;;
20511;SDS011;10414;52.074;5.126;2022-09-09T01:37:56;4.88;;;2.08;;
20511;SDS011;10414;52.074;5.126;2022-09-09T01:40:23;7.68;;;2.08;;
20511;SDS011;10414;52.074;5.126;2022-09-09T01:42:52;6.80;;;2.00;;
20511;SDS011;10414;52.074;5.126;2022-09-09T01:45:19;4.93;;;2.33;;
20511;SDS011;10414;52.074;5.126;2022-09-09T01:47:48;5.40;;;2.53;;
20511;SDS011;10414;52.074;5.126;2022-09-09T01:50:16;8.85;;;2.40;;
20511;SDS011;10414;52.074;5.126;2022-09-09T01:52:43;4.55;;;1.80;;
20511;SDS011;10414;52.074;5.126;2022-09-09T01:55:13;7.18;;;3.00;;
20511;SDS011;10414;52.074;5.126;2022-09-09T01:57:42;5.78;;;2.50;;
20511;SDS011;10414;52.074;5.126;2022-09-09T02:00:21;5.60;;;2.83;;
20511;SDS011;10414;52.074;5.126;2022-09-09T02:02:48;5.05;;;2.45;;
20511;SDS011;10414;52.074;5.126;2022-09-09T02:05:25;6.90;;;2.47;;
20511;SDS011;10414;52.074;5.126;2022-09-09T02:08:03;8.55;;;3.00;;
20511;SDS011;10414;52.074;5.126;2022-09-09T02:10:35;7.32;;;2.88;;
20511;SDS011;10414;52.074;5.126;2022-09-09T02:13:10;8.18;;;3.30;;
20511;SDS011;10414;52.074;5.126;2022-09-09T02:15:42;5.45;;;2.20;;
20511;SDS011;10414;52.074;5.126;2022-09-09T02:18:13;6.68;;;2.72;;
20511;SDS011;10414;52.074;5.126;2022-09-09T02:20:45;6.40;;;3.03;;
20511;SDS011;10414;52.074;5.126;2022-09-09T02:23:13;9.52;;;3.13;;
20511;SDS011;10414;52.074;5.126;2022-09-09T02:25:41;7.40;;;2.45;;
20511;SDS011;10414;52.074;5.126;2022-09-09T02:28:09;6.55;;;2.30;;
20511;SDS011;10414;52.074;5.126;2022-09-09T02:30:38;5.18;;;2.13;;
20511;SDS011;10414;52.074;5.126;2022-09-09T02:33:09;5.53;;;2.78;;
20511;SDS011;10414;52.074;5.126;2022-09-09T02:35:38;7.70;;;2.83;;
20511;SDS011;10414;52.074;5.126;2022-09-09T02:38:09;6.17;;;2.53;;
20511;SDS011;10414;52.074;5.126;2022-09-09T02:40:39;8.57;;;2.85;;
20511;SDS011;10414;52.074;5.126;2022-09-09T02:43:06;6.25;;;2.45;;
20511;SDS011;10414;52.074;5.126;2022-09-09T02:45:35;6.30;;;2.28;;
20511;SDS011;10414;52.074;5.126;2022-09-09T02:48:11;5.95;;;2.88;;
20511;SDS011;10414;52.074;5.126;2022-09-09T02:50:46;6.20;;;2.85;;
20511;SDS011;10414;52.074;5.126;2022-09-09T02:53:22;6.57;;;2.72;;
20511;SDS011;10414;52.074;5.126;2022-09-09T02:55:54;5.03;;;2.47;;
20511;SDS011;10414;52.074;5.126;2022-09-09T02:58:25;6.85;;;2.30;;
20511;SDS011;10414;52.074;5.126;2022-09-09T03:00:52;8.38;;;3.17;;
20511;SDS011;10414;52.074;5.126;2022-09-09T03:03:20;8.35;;;3.28;;
20511;SDS011;10414;52.074;5.126;2022-09-09T03:05:47;6.22;;;2.88;;
20511;SDS011;10414;52.074;5.126;2022-09-09T03:08:14;6.32;;;3.10;;
20511;SDS011;10414;52.074;5.126;2022-09-09T03:10:42;7.55;;;3.42;;
20511;SDS011;10414;52.074;5.126;2022-09-09T03:13:09;7.00;;;3.20;;
20511;SDS011;10414;52.074;5.126;2022-09-09T03:15:37;6.57;;;3.33;;
20511;SDS011;10414;52.074;5.126;2022-09-09T03:18:04;7.30;;;3.42;;
20511;SDS011;10414;52.074;5.126;2022-09-09T03:20:32;6.00;;;3.35;;
20511;SDS011;10414;52.074;5.126;2022-09-09T03:22:59;7.68;;;3.28;;
20511;SDS011;10414;52.074;5.126;2022-09-09T03:25:27;10.60;;;3.40;;
20511;SDS011;10414;52.074;5.126;2022-09-09T03:27:55;8.32;;;3.58;;
20511;SDS011;10414;52.074;5.126;2022-09-09T03:30:22;6.05;;;3.08;;
20511;SDS011;10414;52.074;5.126;2022-09-09T03:32:50;10.65;;;3.10;;
20511;SDS011;10414;52.074;5.126;2022-09-09T03:35:17;7.22;;;3.10;;
20511;SDS011;10414;52.074;5.126;2022-09-09T03:37:45;8.35;;;3.30;;
20511;SDS011;10414;52.074;5.126;2022-09-09T03:40:13;8.60;;;3.80;;
20511;SDS011;10414;52.074;5.126;2022-09-09T03:42:40;8.68;;;3.50;;
20511;SDS011;10414;52.074;5.126;2022-09-09T03:45:08;6.45;;;3.60;;
20511;SDS011;10414;52.074;5.126;2022-09-09T03:47:36;7.88;;;3.75;;
20511;SDS011;10414;52.074;5.126;2022-09-09T03:50:04;7.90;;;3.65;;
20511;SDS011;10414;52.074;5.126;2022-09-09T03:52:34;6.60;;;3.50;;
20511;SDS011;10414;52.074;5.126;2022-09-09T03:55:03;6.38;;;2.72;;
20511;SDS011;10414;52.074;5.126;2022-09-09T03:57:31;11.15;;;3.55;;
20511;SDS011;10414;52.074;5.126;2022-09-09T04:00:00;6.97;;;2.63;;
20511;SDS011;10414;52.074;5.126;2022-09-09T04:02:27;7.43;;;2.83;;
20511;SDS011;10414;52.074;5.126;2022-09-09T04:04:54;7.35;;;2.80;;
20511;SDS011;10414;52.074;5.126;2022-09-09T04:07:21;10.65;;;3.55;;
20511;SDS011;10414;52.074;5.126;2022-09-09T04:09:48;8.15;;;3.97;;
20511;SDS011;10414;52.074;5.126;2022-09-09T04:12:16;7.68;;;3.08;;
20511;SDS011;10414;52.074;5.126;2022-09-09T04:14:43;7.28;;;3.63;;
20511;SDS011;10414;52.074;5.126;2022-09-09T04:17:10;8.30;;;2.85;;
20511;SDS011;10414;52.074;5.126;2022-09-09T04:19:37;8.35;;;3.25;;
20511;SDS011;10414;52.074;5.126;2022-09-09T04:22:03;5.47;;;2.80;;
20511;SDS011;10414;52.074;5.126;2022-09-09T04:24:30;5.20;;;3.03;;
20511;SDS011;10414;52.074;5.126;2022-09-09T04:26:57;6.40;;;2.40;;
20511;SDS011;10414;52.074;5.126;2022-09-09T04:29:25;8.00;;;2.47;;
20511;SDS011;10414;52.074;5.126;2022-09-09T04:31:52;7.97;;;2.50;;
20511;SDS011;10414;52.074;5.126;2022-09-09T04:34:19;6.68;;;2.80;;
20511;SDS011;10414;52.074;5.126;2022-09-09T04:36:46;5.43;;;2.45;;
20511;SDS011;10414;52.074;5.126;2022-09-09T04:39:13;8.18;;;2.60;;
20511;SDS011;10414;52.074;5.126;2022-09-09T04:41:40;9.65;;;2.47;;
20511;SDS011;10414;52.074;5.126;2022-09-09T04:44:07;6.47;;;2.50;;
20511;SDS011;10414;52.074;5.126;2022-09-09T04:46:36;13.02;;;3.10;;
20511;SDS011;10414;52.074;5.126;2022-09-09T04:49:03;8.85;;;3.08;;
20511;SDS011;10414;52.074;5.126;2022-09-09T04:51:30;10.60;;;3.03;;
20511;SDS011;10414;52.074;5.126;2022-09-09T04:53:57;10.52;;;2.85;;
20511;SDS011;10414;52.074;5.126;2022-09-09T04:56:24;6.95;;;2.80;;
20511;SDS011;10414;52.074;5.126;2022-09-09T04:58:53;5.68;;;2.67;;
20511;SDS011;10414;52.074;5.126;2022-09-09T05:01:20;8.32;;;3.00;;
20511;SDS011;10414;52.074;5.126;2022-09-09T05:03:50;11.52;;;3.10;;
20511;SDS011;10414;52.074;5.126;2022-09-09T05:06:19;12.30;;;2.85;;
20511;SDS011;10414;52.074;5.126;2022-09-09T05:08:46;8.20;;;2.40;;
20511;SDS011;10414;52.074;5.126;2022-09-09T05:11:17;6.43;;;2.40;;
20511;SDS011;10414;52.074;5.126;2022-09-09T05:13:46;5.53;;;2.40;;
20511;SDS011;10414;52.074;5.126;2022-09-09T05:16:15;6.93;;;2.28;;
20511;SDS011;10414;52.074;5.126;2022-09-09T05:18:42;7.18;;;2.47;;
20511;SDS011;10414;52.074;5.126;2022-09-09T05:21:11;7.63;;;2.40;;
20511;SDS011;10414;52.074;5.126;2022-09-09T05:23:39;7.03;;;2.58;;
20511;SDS011;10414;52.074;5.126;2022-09-09T05:26:07;7.07;;;2.40;;
20511;SDS011;10414;52.074;5.126;2022-09-09T05:28:38;7.53;;;2.20;;
20511;SDS011;10414;52.074;5.126;2022-09-09T05:31:05;9.20;;;2.45;;
20511;SDS011;10414;52.074;5.126;2022-09-09T05:33:34;7.50;;;2.40;;
20511;SDS011;10414;52.074;5.126;2022-09-09T05:36:02;7.80;;;2.63;;
20511;SDS011;10414;52.074;5.126;2022-09-09T05:38:32;7.35;;;2.17;;
20511;SDS011;10414;52.074;5.126;2022-09-09T05:40:59;7.90;;;2.20;;
20511;SDS011;10414;52.074;5.126;2022-09-09T05:43:26;7.30;;;2.42;;
20511;SDS011;10414;52.074;5.126;2022-09-09T05:46:00;5.95;;;1.73;;
20511;SDS011;10414;52.074;5.126;2022-09-09T05:48:29;7.93;;;2.38;;
20511;SDS011;10414;52.074;5.126;2022-09-09T05:50:57;8.50;;;2.63;;
20511;SDS011;10414;52.074;5.126;2022-09-09T05:53:24;8.55;;;2.33;;
20511;SDS011;10414;52.074;5.126;2022-09-09T05:55:59;11.07;;;2.30;;
20511;SDS011;10414;52.074;5.126;2022-09-09T05:58:28;7.72;;;2.22;;
20511;SDS011;10414;52.074;5.126;2022-09-09T06:01:00;7.13;;;2.05;;
20511;SDS011;10414;52.074;5.126;2022-09-09T06:03:28;6.18;;;2.03;;
20511;SDS011;10414;52.074;5.126;2022-09-09T06:05:58;7.47;;;1.80;;
20511;SDS011;10414;52.074;5.126;2022-09-09T06:08:25;6.65;;;1.75;;
20511;SDS011;10414;52.074;5.126;2022-09-09T06:10:52;7.95;;;2.13;;
20511;SDS011;10414;52.074;5.126;2022-09-09T06:13:21;5.78;;;2.28;;
20511;SDS011;10414;52.074;5.126;2022-09-09T06:15:49;5.45;;;2.30;;
20511;SDS011;10414;52.074;5.126;2022-09-09T06:18:17;7.18;;;2.40;;
20511;SDS011;10414;52.074;5.126;2022-09-09T06:20:52;5.88;;;1.85;;
20511;SDS011;10414;52.074;5.126;2022-09-09T06:23:20;7.65;;;2.00;;
20511;SDS011;10414;52.074;5.126;2022-09-09T06:25:47;6.03;;;2.00;;
20511;SDS011;10414;52.074;5.126;2022-09-09T06:28:15;5.57;;;1.73;;
20511;SDS011;10414;52.074;5.126;2022-09-09T06:30:44;6.97;;;2.15;;
20511;SDS011;10414;52.074;5.126;2022-09-09T06:33:12;7.35;;;2.10;;
20511;SDS011;10414;52.074;5.126;2022-09-09T06:35:39;6.82;;;2.00;;
20511;SDS011;10414;52.074;5.126;2022-09-09T06:38:06;9.73;;;2.03;;
20511;SDS011;10414;52.074;5.126;2022-09-09T06:40:33;4.90;;;1.85;;
20511;SDS011;10414;52.074;5.126;2022-09-09T06:43:00;7.20;;;1.92;;
20511;SDS011;10414;52.074;5.126;2022-09-09T06:45:27;8.25;;;1.92;;
20511;SDS011;10414;52.074;5.126;2022-09-09T06:47:56;8.07;;;2.08;;
20511;SDS011;10414;52.074;5.126;2022-09-09T06:50:23;8.82;;;2.00;;
20511;SDS011;10414;52.074;5.126;2022-09-09T06:52:50;6.75;;;1.75;;
20511;SDS011;10414;52.074;5.126;2022-09-09T06:55:17;5.57;;;1.90;;
20511;SDS011;10414;52.074;5.126;2022-09-09T06:57:44;6.80;;;1.92;;
20511;SDS011;10414;52.074;5.126;2022-09-09T07:00:11;5.45;;;1.70;;
20511;SDS011;10414;52.074;5.126;2022-09-09T07:02:39;6.20;;;1.70;;
20511;SDS011;10414;52.074;5.126;2022-09-09T07:05:08;5.20;;;1.38;;
20511;SDS011;10414;52.074;5.126;2022-09-09T07:07:35;7.30;;;1.70;;
20511;SDS011;10414;52.074;5.126;2022-09-09T07:10:03;13.77;;;2.15;;
20511;SDS011;10414;52.074;5.126;2022-09-09T07:12:30;6.75;;;1.83;;
20511;SDS011;10414;52.074;5.126;2022-09-09T07:14:57;8.95;;;2.03;;
20511;SDS011;10414;52.074;5.126;2022-09-09T07:17:24;10.07;;;2.47;;
20511;SDS011;10414;52.074;5.126;2022-09-09T07:19:51;6.97;;;2.25;;
20511;SDS011;10414;52.074;5.126;2022-09-09T07:22:19;10.32;;;2.45;;
20511;SDS011;10414;52.074;5.126;2022-09-09T07:24:46;6.43;;;2.10;;
20511;SDS011;10414;52.074;5.126;2022-09-09T07:27:14;7.53;;;1.90;;
20511;SDS011;10414;52.074;5.126;2022-09-09T07:29:41;9.02;;;2.03;;
20511;SDS011;10414;52.074;5.126;2022-09-09T07:32:08;8.43;;;2.05;;
20511;SDS011;10414;52.074;5.126;2022-09-09T07:34:36;8.98;;;2.38;;
20511;SDS011;10414;52.074;5.126;2022-09-09T07:37:03;7.10;;;2.00;;
20511;SDS011;10414;52.074;5.126;2022-09-09T07:39:31;7.18;;;2.17;;
20511;SDS011;10414;52.074;5.126;2022-09-09T07:41:58;10.15;;;2.78;;
20511;SDS011;10414;52.074;5.126;2022-09-09T07:44:25;7.45;;;2.63;;
20511;SDS011;10414;52.074;5.126;2022-09-09T07:46:53;12.38;;;2.47;;
20511;SDS011;10414;52.074;5.126;2022-09-09T07:49:19;7.47;;;1.88;;
20511;SDS011;10414;52.074;5.126;2022-09-09T07:51:47;7.22;;;2.08;;
20511;SDS011;10414;52.074;5.126;2022-09-09T07:54:15;9.18;;;2.08;;
20511;SDS011;10414;52.074;5.126;2022-09-09T07:59:14;8.40;;;2.42;;
20511;SDS011;10414;52.074;5.126;2022-09-09T08:01:42;11.40;;;2.17;;
20511;SDS011;10414;52.074;5.126;2022-09-09T08:04:11;12.80;;;2.08;;
20511;SDS011;10414;52.074;5.126;2022-09-09T08:06:42;8.35;;;2.00;;
20511;SDS011;10414;52.074;5.126;2022-09-09T08:09:11;8.27;;;2.30;;
20511;SDS011;10414;52.074;5.126;2022-09-09T08:11:39;13.05;;;2.28;;
20511;SDS011;10414;52.074;5.126;2022-09-09T08:14:08;9.52;;;2.38;;
20511;SDS011;10414;52.074;5.126;2022-09-09T08:16:37;10.25;;;2.30;;
20511;SDS011;10414;52.074;5.126;2022-09-09T08:19:05;10.95;;;2.30;;
20511;SDS011;10414;52.074;5.126;2022-09-09T08:21:33;8.20;;;2.10;;
20511;SDS011;10414;52.074;5.126;2022-09-09T08:24:02;6.43;;;1.90;;
20511;SDS011;10414;52.074;5.126;2022-09-09T08:26:31;11.57;;;2.22;;
20511;SDS011;10414;52.074;5.126;2022-09-09T08:29:01;9.10;;;2.30;;
20511;SDS011;10414;52.074;5.126;2022-09-09T08:31:30;9.88;;;2.40;;
20511;SDS011;10414;52.074;5.126;2022-09-09T08:33:58;9.55;;;2.20;;
20511;SDS011;10414;52.074;5.126;2022-09-09T08:36:27;7.05;;;2.05;;
20511;SDS011;10414;52.074;5.126;2022-09-09T08:38:56;11.45;;;2.28;;
20511;SDS011;10414;52.074;5.126;2022-09-09T08:41:32;7.75;;;2.25;;
20511;SDS011;10414;52.074;5.126;2022-09-09T08:44:06;8.30;;;1.92;;
20511;SDS011;10414;52.074;5.126;2022-09-09T08:46:41;9.60;;;1.90;;
20511;SDS011;10414;52.074;5.126;2022-09-09T08:49:21;8.98;;;2.40;;
20511;SDS011;10414;52.074;5.126;2022-09-09T08:52:06;9.38;;;2.28;;
20511;SDS011;10414;52.074;5.126;2022-09-09T08:54:40;7.85;;;1.90;;
20511;SDS011;10414;52.074;5.126;2022-09-09T08:57:08;12.38;;;2.35;;
20511;SDS011;10414;52.074;5.126;2022-09-09T08:59:40;10.63;;;2.03;;
20511;SDS011;10414;52.074;5.126;2022-09-09T09:02:13;7.68;;;2.30;;
20511;SDS011;10414;52.074;5.126;2022-09-09T09:07:38;10.20;;;2.70;;
20511;SDS011;10414;52.074;5.126;2022-09-09T09:10:15;7.32;;;2.10;;
20511;SDS011;10414;52.074;5.126;2022-09-09T09:12:57;8.30;;;2.60;;
20511;SDS011;10414;52.074;5.126;2022-09-09T09:15:28;12.73;;;2.45;;
20511;SDS011;10414;52.074;5.126;2022-09-09T09:18:03;8.68;;;2.08;;
20511;SDS011;10414;52.074;5.126;2022-09-09T09:20:32;8.75;;;1.95;;
20511;SDS011;10414;52.074;5.126;2022-09-09T09:23:06;13.05;;;1.90;;
20511;SDS011;10414;52.074;5.126;2022-09-09T09:25:45;8.60;;;2.00;;
20511;SDS011;10414;52.074;5.126;2022-09-09T09:28:15;7.40;;;1.70;;
20511;SDS011;10414;52.074;5.126;2022-09-09T09:30:48;9.35;;;2.28;;
20511;SDS011;10414;52.074;5.126;2022-09-09T09:33:20;10.00;;;2.80;;
20511;SDS011;10414;52.074;5.126;2022-09-09T09:35:53;9.13;;;1.90;;
20511;SDS011;10414;52.074;5.126;2022-09-09T09:38:20;10.38;;;2.30;;
20511;SDS011;10414;52.074;5.126;2022-09-09T09:40:49;9.15;;;2.33;;
20511;SDS011;10414;52.074;5.126;2022-09-09T09:43:23;9.10;;;2.40;;
20511;SDS011;10414;52.074;5.126;2022-09-09T09:45:52;12.20;;;2.50;;
20511;SDS011;10414;52.074;5.126;2022-09-09T09:48:21;8.45;;;2.50;;
20511;SDS011;10414;52.074;5.126;2022-09-09T09:50:49;11.10;;;2.33;;
20511;SDS011;10414;52.074;5.126;2022-09-09T09:53:20;7.43;;;2.00;;
20511;SDS011;10414;52.074;5.126;2022-09-09T09:55:52;9.38;;;2.20;;
20511;SDS011;10414;52.074;5.126;2022-09-09T09:58:21;9.15;;;2.10;;
20511;SDS011;10414;52.074;5.126;2022-09-09T10:00:49;11.25;;;2.20;;
20511;SDS011;10414;52.074;5.126;2022-09-09T10:03:23;9.40;;;2.38;;
20511;SDS011;10414;52.074;5.126;2022-09-09T10:05:52;11.52;;;1.88;;
20511;SDS011;10414;52.074;5.126;2022-09-09T10:08:21;10.05;;;2.30;;
20511;SDS011;10414;52.074;5.126;2022-09-09T10:10:51;9.82;;;2.13;;
20511;SDS011;10414;52.074;5.126;2022-09-09T10:13:29;11.35;;;2.33;;
20511;SDS011;10414;52.074;5.126;2022-09-09T10:16:07;8.63;;;2.30;;
20511;SDS011;10414;52.074;5.126;2022-09-09T10:18:52;6.28;;;2.33;;
20511;SDS011;10414;52.074;5.126;2022-09-09T10:27:45;8.02;;;2.30;;
20511;SDS011;10414;52.074;5.126;2022-09-09T10:30:21;7.65;;;2.00;;
20511;SDS011;10414;52.074;5.126;2022-09-09T10:32:52;9.65;;;2.30;;
20511;SDS011;10414;52.074;5.126;2022-09-09T10:35:29;7.50;;;2.58;;
20511;SDS011;10414;52.074;5.126;2022-09-09T10:38:14;9.07;;;2.00;;
20511;SDS011;10414;52.074;5.126;2022-09-09T10:43:31;9.57;;;2.00;;
20511;SDS011;10414;52.074;5.126;2022-09-09T10:46:10;6.38;;;2.10;;
20511;SDS011;10414;52.074;5.126;2022-09-09T10:48:52;11.65;;;2.53;;
20511;SDS011;10414;52.074;5.126;2022-09-09T10:51:36;6.43;;;1.77;;
20511;SDS011;10414;52.074;5.126;2022-09-09T10:54:16;6.70;;;1.80;;
20511;SDS011;10414;52.074;5.126;2022-09-09T10:56:54;6.63;;;1.70;;
20511;SDS011;10414;52.074;5.126;2022-09-09T10:59:26;5.85;;;1.70;;
20511;SDS011;10414;52.074;5.126;2022-09-09T11:01:57;6.82;;;2.00;;
20511;SDS011;10414;52.074;5.126;2022-09-09T11:04:29;7.30;;;2.40;;
20511;SDS011;10414;52.074;5.126;2022-09-09T11:07:02;7.43;;;2.30;;
20511;SDS011;10414;52.074;5.126;2022-09-09T11:09:35;6.20;;;2.00;;
20511;SDS011;10414;52.074;5.126;2022-09-09T11:12:06;7.30;;;1.98;;
20511;SDS011;10414;52.074;5.126;2022-09-09T11:14:41;6.13;;;2.30;;
20511;SDS011;10414;52.074;5.126;2022-09-09T11:17:10;6.85;;;1.90;;
20511;SDS011;10414;52.074;5.126;2022-09-09T11:19:42;8.38;;;2.13;;
20511;SDS011;10414;52.074;5.126;2022-09-09T11:22:15;7.43;;;2.05;;
20511;SDS011;10414;52.074;5.126;2022-09-09T11:24:49;7.50;;;1.75;;
20511;SDS011;10414;52.074;5.126;2022-09-09T11:32:52;9.52;;;2.20;;
20511;SDS011;10414;52.074;5.126;2022-09-09T11:35:42;7.75;;;1.85;;
20511;SDS011;10414;52.074;5.126;2022-09-09T11:38:21;7.65;;;2.30;;
20511;SDS011;10414;52.074;5.126;2022-09-09T11:40:59;5.72;;;1.90;;
20511;SDS011;10414;52.074;5.126;2022-09-09T11:43:29;6.55;;;1.90;;
20511;SDS011;10414;52.074;5.126;2022-09-09T11:45:59;6.93;;;2.08;;
20511;SDS011;10414;52.074;5.126;2022-09-09T11:48:29;9.68;;;2.28;;
20511;SDS011;10414;52.074;5.126;2022-09-09T11:51:00;9.02;;;2.28;;
20511;SDS011;10414;52.074;5.126;2022-09-09T11:53:34;8.63;;;2.10;;
20511;SDS011;10414;52.074;5.126;2022-09-09T11:56:12;5.57;;;1.92;;
20511;SDS011;10414;52.074;5.126;2022-09-09T11:58:53;7.70;;;2.05;;
20511;SDS011;10414;52.074;5.126;2022-09-09T12:01:26;7.10;;;2.20;;
20511;SDS011;10414;52.074;5.126;2022-09-09T12:04:01;6.95;;;2.40;;
20511;SDS011;10414;52.074;5.126;2022-09-09T12:06:51;12.57;;;2.38;;
20511;SDS011;10414;52.074;5.126;2022-09-09T12:09:27;4.85;;;2.10;;
20511;SDS011;10414;52.074;5.126;2022-09-09T12:12:07;8.85;;;2.28;;
20511;SDS011;10414;52.074;5.126;2022-09-09T12:14:55;10.52;;;2.40;;
20511;SDS011;10414;52.074;5.126;2022-09-09T12:17:28;7.80;;;2.42;;
20511;SDS011;10414;52.074;5.126;2022-09-09T12:20:03;7.22;;;2.50;;
20511;SDS011;10414;52.074;5.126;2022-09-09T12:22:39;8.35;;;2.22;;
20511;SDS011;10414;52.074;5.126;2022-09-09T12:25:23;6.40;;;1.80;;
20511;SDS011;10414;52.074;5.126;2022-09-09T12:28:00;8.80;;;2.28;;
20511;SDS011;10414;52.074;5.126;2022-09-09T12:30:34;6.93;;;2.40;;
20511;SDS011;10414;52.074;5.126;2022-09-09T12:33:08;5.90;;;2.22;;
20511;SDS011;10414;52.074;5.126;2022-09-09T12:35:39;5.53;;;2.08;;
20511;SDS011;10414;52.074;5.126;2022-09-09T12:38:10;6.70;;;2.20;;
20511;SDS011;10414;52.074;5.126;2022-09-09T12:40:42;6.45;;;2.10;;
20511;SDS011;10414;52.074;5.126;2022-09-09T12:43:21;5.80;;;2.25;;
20511;SDS011;10414;52.074;5.126;2022-09-09T12:45:50;8.73;;;2.08;;
20511;SDS011;10414;52.074;5.126;2022-09-09T12:48:21;6.38;;;1.88;;
20511;SDS011;10414;52.074;5.126;2022-09-09T12:50:55;6.15;;;2.20;;
20511;SDS011;10414;52.074;5.126;2022-09-09T12:53:23;6.60;;;2.17;;
20511;SDS011;10414;52.074;5.126;2022-09-09T12:55:54;6.55;;;2.35;;
20511;SDS011;10414;52.074;5.126;2022-09-09T12:58:23;6.15;;;2.33;;
20511;SDS011;10414;52.074;5.126;2022-09-09T13:00:51;5.75;;;2.03;;
20511;SDS011;10414;52.074;5.126;2022-09-09T13:03:21;5.22;;;2.03;;
20511;SDS011;10414;52.074;5.126;2022-09-09T13:05:50;8.00;;;2.22;;
20511;SDS011;10414;52.074;5.126;2022-09-09T13:08:18;7.22;;;2.38;;
20511;SDS011;10414;52.074;5.126;2022-09-09T13:10:46;6.53;;;2.10;;
20511;SDS011;10414;52.074;5.126;2022-09-09T13:13:22;5.93;;;2.25;;
20511;SDS011;10414;52.074;5.126;2022-09-09T13:15:52;7.45;;;2.15;;
20511;SDS011;10414;52.074;5.126;2022-09-09T13:18:21;4.53;;;1.90;;
20511;SDS011;10414;52.074;5.126;2022-09-09T13:20:50;8.80;;;2.13;;
20511;SDS011;10414;52.074;5.126;2022-09-09T13:23:18;7.50;;;2.30;;
20511;SDS011;10414;52.074;5.126;2022-09-09T13:25:52;6.22;;;2.13;;
20511;SDS011;10414;52.074;5.126;2022-09-09T13:28:22;7.53;;;2.25;;
20511;SDS011;10414;52.074;5.126;2022-09-09T13:30:57;7.15;;;2.22;;
20511;SDS011;10414;52.074;5.126;2022-09-09T13:33:29;7.53;;;2.58;;
20511;SDS011;10414;52.074;5.126;2022-09-09T13:35:58;7.45;;;2.60;;
20511;SDS011;10414;52.074;5.126;2022-09-09T13:38:29;6.32;;;2.53;;
20511;SDS011;10414;52.074;5.126;2022-09-09T13:41:00;7.00;;;2.30;;
20511;SDS011;10414;52.074;5.126;2022-09-09T13:43:31;7.88;;;2.40;;
20511;SDS011;10414;52.074;5.126;2022-09-09T13:46:03;7.07;;;2.60;;
20511;SDS011;10414;52.074;5.126;2022-09-09T13:48:32;7.55;;;2.90;;
20511;SDS011;10414;52.074;5.126;2022-09-09T13:51:00;11.40;;;3.90;;
20511;SDS011;10414;52.074;5.126;2022-09-09T13:53:29;8.00;;;3.17;;
20511;SDS011;10414;52.074;5.126;2022-09-09T13:55:57;7.72;;;3.20;;
20511;SDS011;10414;52.074;5.126;2022-09-09T13:58:26;9.63;;;3.20;;
20511;SDS011;10414;52.074;5.126;2022-09-09T14:00:54;8.20;;;3.47;;
20511;SDS011;10414;52.074;5.126;2022-09-09T14:03:22;6.38;;;2.58;;
20511;SDS011;10414;52.074;5.126;2022-09-09T14:05:52;8.05;;;3.03;;
20511;SDS011;10414;52.074;5.126;2022-09-09T14:08:20;10.63;;;3.70;;
20511;SDS011;10414;52.074;5.126;2022-09-09T14:10:50;8.65;;;3.63;;
20511;SDS011;10414;52.074;5.126;2022-09-09T14:13:17;11.98;;;4.53;;
20511;SDS011;10414;52.074;5.126;2022-09-09T14:15:47;8.55;;;3.78;;
20511;SDS011;10414;52.074;5.126;2022-09-09T14:18:16;8.77;;;4.07;;
20511;SDS011;10414;52.074;5.126;2022-09-09T14:20:43;7.38;;;3.50;;
20511;SDS011;10414;52.074;5.126;2022-09-09T14:23:11;8.70;;;3.28;;
20511;SDS011;10414;52.074;5.126;2022-09-09T14:25:39;8.90;;;3.50;;
20511;SDS011;10414;52.074;5.126;2022-09-09T14:28:08;9.88;;;4.25;;
20511;SDS011;10414;52.074;5.126;2022-09-09T14:30:37;10.10;;;4.15;;
20511;SDS011;10414;52.074;5.126;2022-09-09T14:33:04;5.90;;;3.00;;
20511;SDS011;10414;52.074;5.126;2022-09-09T14:35:38;7.10;;;3.38;;
20511;SDS011;10414;52.074;5.126;2022-09-09T14:38:11;7.95;;;3.25;;
20511;SDS011;10414;52.074;5.126;2022-09-09T14:40:39;5.78;;;2.50;;
20511;SDS011;10414;52.074;5.126;2022-09-09T14:43:09;5.72;;;1.85;;
20511;SDS011;10414;52.074;5.126;2022-09-09T14:45:38;5.97;;;2.03;;
20511;SDS011;10414;52.074;5.126;2022-09-09T14:48:05;3.88;;;1.65;;
20511;SDS011;10414;52.074;5.126;2022-09-09T14:50:32;3.78;;;1.45;;
20511;SDS011;10414;52.074;5.126;2022-09-09T14:53:01;6.18;;;1.50;;
20511;SDS011;10414;52.074;5.126;2022-09-09T14:55:28;4.45;;;1.67;;
20511;SDS011;10414;52.074;5.126;2022-09-09T14:57:55;3.65;;;1.85;;
20511;SDS011;10414;52.074;5.126;2022-09-09T15:00:21;4.88;;;1.70;;
20511;SDS011;10414;52.074;5.126;2022-09-09T15:02:51;8.00;;;1.73;;
20511;SDS011;10414;52.074;5.126;2022-09-09T15:05:18;5.95;;;1.98;;
20511;SDS011;10414;52.074;5.126;2022-09-09T15:07:45;6.40;;;2.00;;
20511;SDS011;10414;52.074;5.126;2022-09-09T15:10:14;8.15;;;3.00;;
20511;SDS011;10414;52.074;5.126;2022-09-09T15:12:42;4.85;;;1.95;;
20511;SDS011;10414;52.074;5.126;2022-09-09T15:15:09;5.95;;;2.17;;
20511;SDS011;10414;52.074;5.126;2022-09-09T15:17:37;4.50;;;1.80;;
20511;SDS011;10414;52.074;5.126;2022-09-09T15:20:05;4.57;;;1.83;;
20511;SDS011;10414;52.074;5.126;2022-09-09T15:22:32;7.28;;;1.98;;
20511;SDS011;10414;52.074;5.126;2022-09-09T15:25:02;4.53;;;1.70;;
20511;SDS011;10414;52.074;5.126;2022-09-09T15:27:31;5.22;;;1.92;;